• Join FlightAware (Why Join?)
  • Login
  • US Flag 
12:02AM EDT


 

Airport Tracker/Info


-or-


 

Live Flight TrackerFlight Track Log ✈ UAL395 ✈ 10-Oct-2013 ✈ KDEN - KEWR

Flight Track Log - Related Links

Times and Time Zones

All times are in EDT time to prevent confusion due to time zone crossing. See the UAL395 flight status page for this flight to view local times or setup timezone preferences in your user account.

Time Position Orientation Groundspeed Altitude Reporting Facility
EDT Latitude Longitude Course Direction KTS MPH feet Rate Location/Type
10:49AM 39.8000 -104.6167 99° East 187 215 7,600  Level Denver TRACON
10:50AM 39.7500 -104.5667 142° Southeast 247 284 9,400 2,400 Climbing Denver TRACON
10:51AM 39.6833 -104.4833 136° Southeast 277 319 12,400 2,580 Climbing Denver TRACON
10:52AM 39.9594 -104.0631 83° East  Level Estimated
10:52AM 39.6783 -104.4475 100° East 294 338 13,400  Level Denver Center
10:53AM 39.9833 -103.9103 83° East  Level Estimated
10:53AM 39.7183 -104.3192 68° East 362 417 15,200  Level Denver Center
10:54AM 39.9641 -103.7564 99° East  Level FlightAware Approximate
10:54AM 39.7614 -104.1678 70° East 417 480 16,700  Level Denver Center
10:55AM 39.8039 -104.0150 70° East 449 517 18,500 1,920 Climbing Denver Center
10:56AM 39.8519 -103.8486 69° East 457 526 20,700 1,680 Climbing Denver Center
10:57AM 39.8894 -103.6928 73° East 458 527 22,000 1,200 Climbing Denver Center
10:58AM 39.9069 -103.5247 82° East 467 537 23,200 1,260 Climbing Denver Center
10:59AM 39.9281 -103.3503 81° East 484 557 24,700 1,200 Climbing Denver Center
11:00AM 39.9469 -103.1711 82° East 497 572 25,800 1,200 Climbing Denver Center
11:01AM 39.9711 -102.9531 82° East 505 581 27,200 1,200 Climbing Denver Center
11:02AM 39.9914 -102.7686 82° East 514 592 28,300 1,020 Climbing Denver Center
11:03AM 40.0111 -102.5894 82° East 520 598 29,400 1,080 Climbing Denver Center
11:04AM 40.0319 -102.3828 82° East 517 595 30,600 1,080 Climbing Denver Center
11:05AM 40.0497 -102.2050 83° East 517 595 31,700 1,080 Climbing Denver Center
11:06AM 40.0714 -102.0000 82° East 513 590 32,900 600 Climbing Denver Center
11:07AM 40.0883 -101.8225 83° East 515 593 33,000  Climbing Denver Center
11:08AM 40.1086 -101.6172 83° East 513 590 33,000 180 Level Denver Center
11:09AM 40.1256 -101.4408 83° East 513 590 33,400 720 Climbing Denver Center
11:10AM 40.1444 -101.2356 83° East 513 590 34,500 720 Climbing Denver Center
11:11AM 40.1611 -101.0611 83° East 509 586 35,000 240 Climbing Denver Center
11:12AM 40.1800 -100.8567 83° East 509 586 35,000  Level Denver Center
11:14AM 40.1958 -100.6814 83° East 511 588 35,000  Level Denver Center
11:15AM 40.2264 -100.4783 79° East 511 588 35,000  Level Denver Center
11:16AM 40.2622 -100.3050 75° East 516 594 35,000  Level Denver Center
11:17AM 40.3028 -100.1022 75° East 517 595 35,000  Level Denver Center
11:18AM 40.3381 -99.9292 75° East 517 595 35,000  Level Denver Center
11:19AM 40.3769 -99.7311 75° East 520 598 35,000  Level Denver Center
11:20AM 40.4122 -99.5489 76° East 519 597 35,000  Level Denver Center
11:21AM 40.4483 -99.3667 75° East 518 596 35,000  Level Denver Center
11:22AM 40.4833 -99.1850 76° East 517 595 35,000  Level Denver Center
11:23AM 40.5178 -99.0042 76° East 517 595 35,000  Level Minneapolis Center
11:24AM 40.5522 -98.8231 76° East 516 594 35,000  Level Minneapolis Center
11:25AM 40.5861 -98.6442 76° East 512 589 35,000  Level Minneapolis Center
11:26AM 40.6261 -98.4278 76° East 511 588 35,000  Level Minneapolis Center
11:27AM 40.6581 -98.2486 77° East 508 585 35,000  Level Minneapolis Center
11:28AM 40.6903 -98.0697 77° East 507 583 35,000  Level Minneapolis Center
11:29AM 40.7231 -97.8900 76° East 507 583 35,000  Level Minneapolis Center
11:30AM 40.7553 -97.7092 77° East 508 585 35,000  Level Minneapolis Center
11:31AM 40.7939 -97.4922 77° East 508 585 35,000  Level Minneapolis Center
11:32AM 40.8231 -97.3253 77° East 511 588 35,000  Level Minneapolis Center
11:33AM 40.8547 -97.1422 77° East 512 589 35,000  Level Minneapolis Center
11:34AM 40.8861 -96.9600 77° East 512 589 35,000  Level Minneapolis Center
11:35AM 40.9236 -96.7422 77° East 509 586 35,000  Level Minneapolis Center
11:36AM 40.9542 -96.5633 77° East 504 580 35,000  Level Minneapolis Center
11:37AM 40.9864 -96.3875 76° East 498 573 35,000 -60 Level Minneapolis Center
11:38AM 41.0172 -96.2128 77° East 494 568 34,900 -60 Descending Minneapolis Center
11:39AM 41.0475 -96.0378 77° East 494 568 34,900  Level Minneapolis Center
11:40AM 41.0839 -95.8264 77° East 496 571 35,000  Climbing Minneapolis Center
11:41AM 41.1142 -95.6489 77° East 499 574 35,000  Level Minneapolis Center
11:42AM 41.1453 -95.4703 77° East 501 577 35,000  Level Minneapolis Center
11:43AM 41.1761 -95.2886 77° East 506 582 35,100  Climbing Minneapolis Center
11:44AM 41.2058 -95.1083 78° East 504 580 35,000 -60 Descending Minneapolis Center
11:45AM 41.2417 -94.8917 78° East 502 578 35,000  Level Minneapolis Center
11:46AM 41.2697 -94.7108 78° East 502 578 35,000  Level Minneapolis Center
11:48AM 41.2992 -94.5297 78° East 502 578 35,000  Level Minneapolis Center
11:49AM 41.3286 -94.3472 78° East 504 580 35,000  Level Minneapolis Center
11:50AM 41.3592 -94.1447 79° East 503 579 35,000  Level Minneapolis Center
11:51AM 41.3883 -93.9631 78° East 504 580 35,000  Level Minneapolis Center
11:52AM 41.4158 -93.7836 78° East 501 577 35,000  Level Minneapolis Center
11:53AM 41.4431 -93.6031 79° East 500 575 35,000  Level Minneapolis Center
11:54AM 41.4594 -93.4206 83° East 500 575 35,000  Level Minneapolis Center
11:55AM 41.4778 -93.2392 82° East 499 574 35,000 120 Level Minneapolis Center
11:56AM 41.4975 -93.0228 83° East 494 568 35,300 480 Climbing Minneapolis Center
11:57AM 41.5142 -92.8447 83° East 489 563 36,100 720 Climbing Minneapolis Center
11:58AM 41.5303 -92.6653 83° East 489 563 36,900 420 Climbing Minneapolis Center
11:59AM 41.5464 -92.4853 83° East 490 564 37,000  Climbing Minneapolis Center
12:00PM 41.5664 -92.2433 84° East 489 563 37,000  Level Chicago Center
12:01PM 41.5814 -92.0658 83° East 488 562 37,000  Level Chicago Center
12:02PM 41.5969 -91.8872 83° East 491 565 37,000  Level Chicago Center
12:03PM 41.6111 -91.7111 84° East 485 558 37,000  Level Chicago Center
12:04PM 41.6256 -91.5350 84° East 484 557 37,000  Level Chicago Center
12:05PM 41.6417 -91.3236 84° East 484 557 37,000  Level Chicago Center
12:06PM 41.6558 -91.1472 84° East 484 557 37,000  Level Chicago Center
12:07PM 41.6689 -90.9708 84° East 483 556 37,000  Level Chicago Center
12:08PM 41.6819 -90.7944 84° East 483 556 37,000  Level Chicago Center
12:09PM 41.6944 -90.6136 85° East 489 563 37,000  Level Chicago Center
12:10PM 41.7094 -90.3994 85° East 483 556 37,000  Level Chicago Center
12:11PM 41.7222 -90.2222 84° East 479 551 37,000  Level Chicago Center
12:17PM 41.7840 -89.2480 84° East 100 115 37,000  Level FlightAware
12:18PM 41.7930 -89.0910 86° East 473 544 37,000  Level FlightAware
12:19PM 41.7990 -88.9860 86° East 472 543 37,000  Level FlightAware
12:19PM 41.8040 -88.8890 86° East 480 552 37,000  Level FlightAware
12:20PM 41.8150 -88.7060 85° East 481 554 37,000  Level FlightAware
12:21PM 41.8210 -88.5870 86° East 486 559 37,000  Level FlightAware
12:22PM 41.8280 -88.4750 85° East 486 559 37,000  Level FlightAware
12:22PM 41.8320 -88.3490 88° East 486 559 37,000  Level FlightAware
12:23PM 41.8380 -88.2460 85° East 490 564 37,000  Level FlightAware
12:23PM 41.8440 -88.1410 86° East 475 547 37,000  Level FlightAware
12:24PM 41.8530 -88.0160 84° East 487 560 37,000  Level FlightAware
12:25PM 41.8570 -87.8850 88° East 482 555 37,000  Level FlightAware
12:25PM 41.8590 -87.8380 87° East 476 548 37,000  Level FlightAware
12:26PM 41.8650 -87.6890 87° East 485 558 37,000  Level FlightAware
12:27PM 41.8700 -87.5860 86° East 472 543 37,000  Level FlightAware
12:27PM 41.8770 -87.4510 86° East 474 545 37,000  Level FlightAware
12:28PM 41.8780 -87.4070 88° East 476 548 37,000  Level FlightAware
12:28PM 41.8830 -87.2940 87° East 474 545 37,000  Level FlightAware
12:29PM 41.8870 -87.1920 87° East 473 544 37,000  Level FlightAware
12:29PM 41.8910 -87.0820 87° East 492 566 37,000  Level FlightAware
12:30PM 41.8960 -86.9820 86° East 474 545 37,000  Level FlightAware
12:30PM 41.8990 -86.9010 87° East 470 541 37,000  Level FlightAware
12:31PM 41.9040 -86.7820 87° East 470 541 37,000  Level FlightAware
12:32PM 41.9070 -86.6800 88° East 466 536 37,000  Level FlightAware
12:32PM 41.9100 -86.5710 88° East 473 544 37,000  Level FlightAware
12:33PM 41.9170 -86.4700 85° East 473 544 37,000  Level FlightAware
12:34PM 41.9240 -86.3560 85° East 473 544 37,000  Level FlightAware
12:34PM 41.9300 -86.2610 85° East 473 544 37,000  Level FlightAware
12:35PM 41.9360 -86.1690 85° East 473 544 37,000  Level FlightAware
12:36PM 41.9420 -86.0790 85° East 473 544 37,000  Level FlightAware
12:36PM 41.9480 -85.9900 85° East 473 544 37,000  Level FlightAware
12:37PM 41.9360 -85.7780 94° East 473 544 37,000  Level FlightAware
12:38PM 41.9400 -85.6880 87° East 473 544 37,000  Level FlightAware
12:38PM 41.9430 -85.6030 87° East 473 544 37,000  Level FlightAware
12:39PM 41.9470 -85.5130 87° East 473 544 37,000  Level FlightAware
12:39PM 41.9500 -85.4230 87° East 473 544 37,000  Level FlightAware
12:40PM 41.9540 -85.3330 87° East 473 544 37,000  Level FlightAware
12:41PM 41.9570 -85.2430 87° East 473 544 37,000  Level FlightAware
12:41PM 41.9610 -85.1530 87° East 473 544 37,000  Level FlightAware
12:42PM 41.9640 -85.0630 87° East 473 544 37,000  Level FlightAware
12:42PM 41.9680 -84.9710 87° East 473 544 37,000  Level FlightAware
12:43PM 41.9710 -84.8860 87° East 473 544 37,000  Level FlightAware
12:44PM 41.9750 -84.7940 87° East 473 544 37,000  Level FlightAware
12:44PM 41.9780 -84.7040 87° East 473 544 37,000  Level FlightAware
12:45PM 41.9820 -84.6140 87° East 473 544 37,000  Level FlightAware
12:45PM 41.9850 -84.5210 87° East 473 544 37,000  Level FlightAware
12:46PM 41.9890 -84.4290 87° East 473 544 37,000  Level FlightAware
12:47PM 41.9470 -84.1940 103° East 473 544 37,000  Level FlightAware
12:47PM 41.9500 -84.0990 88° East 473 544 37,000  Level FlightAware
12:48PM 41.9520 -84.0150 88° East 473 544 37,000  Level FlightAware
12:48PM 41.9540 -83.9250 88° East 473 544 37,000  Level FlightAware
12:49PM 41.9570 -83.8350 87° East 473 544 37,000  Level FlightAware
12:50PM 41.9590 -83.7420 88° East 473 544 37,000  Level FlightAware
12:50PM 41.9620 -83.6470 88° East 473 544 37,000  Level FlightAware
12:51PM 41.9640 -83.5620 88° East 473 544 37,000  Level FlightAware
12:51PM 41.9660 -83.4670 88° East 473 544 37,000  Level FlightAware
12:52PM 41.9680 -83.3820 88° East 473 544 37,000  Level FlightAware
12:53PM 41.9710 -83.2920 87° East 473 544 37,000  Level FlightAware
12:53PM 41.9730 -83.1970 88° East 473 544 37,000  Level FlightAware
12:54PM 41.9760 -83.0820 88° East 473 544 37,000  Level FlightAware
12:55PM 41.9790 -82.9920 87° East 473 544 37,000  Level FlightAware
12:55PM 41.9810 -82.8970 88° East 473 544 37,000  Level FlightAware
12:56PM 41.9830 -82.8120 88° East 473 544 37,000  Level FlightAware
12:57PM 41.9272 -82.4494 88° East 447 514 37,000  Level Cleveland Center
12:58PM 41.9239 -82.2836 91° East 447 514 37,000  Level Cleveland Center
12:59PM 41.9206 -82.1033 91° East 450 518 37,000  Level Cleveland Center
01:00PM 41.9181 -81.9344 91° East 447 514 37,000  Level Cleveland Center
01:01PM 41.9117 -81.7656 93° East 447 514 37,000  Level Cleveland Center
01:02PM 41.8958 -81.5992 97° East 443 510 37,000  Level Cleveland Center
01:03PM 41.8811 -81.4331 97° East 444 511 37,000  Level Cleveland Center
01:04PM 41.8656 -81.2669 97° East 443 510 37,000  Level Cleveland Center
01:05PM 41.8475 -81.0736 97° East 443 510 37,000  Level Cleveland Center
01:06PM 41.8325 -80.9094 97° East 440 506 37,000  Level Cleveland Center
01:07PM 41.8158 -80.7436 98° East 444 511 37,000  Level Cleveland Center
01:08PM 41.8006 -80.5775 97° East 444 511 37,000  Level Cleveland Center
01:09PM 41.7839 -80.4128 98° East 444 511 37,000  Level Cleveland Center
01:10PM 41.7672 -80.2469 98° East 447 514 37,000  Level Cleveland Center
01:11PM 41.7508 -80.0831 98° East 441 507 37,000  Level Cleveland Center
01:12PM 41.7311 -79.8925 98° East 440 506 37,000  Level Cleveland Center
01:13PM 41.7139 -79.7289 98° East 441 507 37,000  Level Cleveland Center
01:14PM 41.6967 -79.5658 98° East 440 506 37,000  Level Cleveland Center
01:15PM 41.6786 -79.4056 99° East 438 504 37,000  Level Cleveland Center
01:16PM 41.6603 -79.2314 98° East 445 512 37,000  Level Cleveland Center
01:17PM 41.6425 -79.0758 99° East 451 519 37,000 -60 Level Cleveland Center
01:18PM 41.6236 -78.9072 98° East 458 527 36,900 -600 Descending Cleveland Center
01:20PM 41.6003 -78.7042 99° East 460 529 35,800 -1,020 Descending Cleveland Center
01:21PM 41.5811 -78.5369 99° East 458 527 34,800 -1,020 Descending Cleveland Center
01:22PM 41.5611 -78.3689 99° East 457 526 33,800 -960 Descending Cleveland Center
01:23PM 41.5414 -78.2019 99° East 456 525 32,800 -1,200 Descending Cleveland Center
01:24PM 41.5206 -78.0342 99° East 458 527 31,300 -900 Descending Cleveland Center
01:25PM 41.4931 -77.8256 100° East 457 526 31,000 -180 Descending New York Center
01:26PM 41.4697 -77.6567 100° East 457 526 31,000  Level New York Center
01:27PM 41.4500 -77.5247 101° East 457 526 31,000  Level New York Center
01:28PM 41.4208 -77.3392 102° East 457 526 31,000  Level New York Center
01:29PM 41.3969 -77.1708 101° East 457 526 31,000 -1,860 Level New York Center
01:30PM 41.3706 -76.9994 102° East 457 526 27,300 -3,840 Descending New York Center
01:31PM 41.3442 -76.8231 101° East 469 540 23,400 -2,640 Descending New York Center
01:32PM 41.3086 -76.6622 106° East 469 540 22,100 -1,320 Descending New York Center
01:33PM 41.2606 -76.4925 111° Southeast 452 520 20,800 -1,200 Descending New York Center
01:34PM 41.2178 -76.3400 110° East 441 507 19,800 -1,020 Descending New York Center
01:35PM 41.1867 -76.2078 107° East 436 502 18,800 -1,320 Descending New York Center
01:36PM 41.1453 -76.0583 110° East 404 465 17,200 -1,200 Descending New York Center
01:37PM 41.1131 -75.9403 110° East 367 422 16,500 -900 Descending New York Center
01:38PM 41.0861 -75.8444 110° East 323 372 15,400 -900 Descending New York Center
01:43PM 40.9550 -75.3750 110° East 100 115 11,100 -780 Descending FlightAware
01:44PM 40.9500 -75.3550 108° East 100 115 11,100  Level FlightAware
01:44PM 40.9460 -75.3370 106° East 100 115 11,100  Level FlightAware
01:45PM 40.9410 -75.3200 111° Southeast 100 115 11,100 -1,440 Level FlightAware
01:46PM 40.8872 -75.1353 111° Southeast 218 251 9,000 -1,140 Descending New York Center
01:47PM 40.8536 -75.0836 131° Southeast 209 241 9,000 -60 Level New York Center
01:53PM 40.8180 -75.1150 131° Southeast 100 115 8,700 -60 Descending FlightAware
01:53PM 40.8120 -75.1040 126° Southeast 100 115 8,700  Level FlightAware
01:54PM 40.8070 -75.0930 121° Southeast 100 115 8,700  Level FlightAware
01:54PM 40.8020 -75.0830 123° Southeast 100 115 8,700  Level FlightAware
01:54PM 40.7960 -75.0720 126° Southeast 100 115 8,700 -1,140 Level FlightAware
01:56PM 40.9000 -75.2000 126° Southeast 217 250 7,000 -840 Descending New York TRACON
01:57PM 40.8833 -75.1167 105° East 259 298 7,000  Level New York TRACON
01:58PM 40.8500 -75.0333 118° Southeast 240 276 7,000  Level New York TRACON
01:59PM 40.8667 -74.9500 75° East 221 254 7,000 -60 Level New York TRACON
02:00PM 40.8833 -74.8833 72° East 217 250 6,900 -540 Descending New York TRACON
02:01PM 40.8667 -74.8000 105° East 217 250 6,000 -480 Descending New York TRACON
02:02PM 40.8500 -74.7333 108° East 220 253 6,000  Level New York TRACON
02:03PM 40.8000 -74.6833 143° Southeast 218 251 6,000  Level New York TRACON
02:04PM 40.7667 -74.6167 123° Southeast 212 244 6,000 -240 Level New York TRACON
02:05PM 40.7167 -74.6000 166° South 222 255 5,600 -540 Descending New York TRACON
02:06PM 40.6500 -74.5833 169° South 223 257 5,000 -300 Descending New York TRACON
02:07PM 40.5833 -74.5667 169° South 221 254 5,000 -480 Level New York TRACON
02:08PM 40.5333 -74.5333 153° Southeast 210 242 4,100 -660 Descending New York TRACON
02:09PM 40.4833 -74.5000 153° Southeast 212 244 3,700 -600 Descending New York TRACON
02:09PM 40.4333 -74.4667 153° Southeast 203 234 3,000 -420 Descending New York TRACON
02:10PM 40.4000 -74.4333 143° Southeast 168 193 3,000  Level New York TRACON
02:11PM 40.4167 -74.3833 66° East 166 191 3,000  Level New York TRACON
02:12PM 40.4500 -74.3333 49° Northeast 163 188 3,000  Level New York TRACON
02:13PM 40.4833 -74.3000 37° Northeast 175 201 3,000  Level New York TRACON
02:14PM 40.5333 -74.2667 27° Northeast 176 203 3,000 -300 Level New York TRACON
02:15PM 40.5667 -74.2333 37° Northeast 177 204 2,400 -780 Descending New York TRACON
02:16PM 40.6167 -74.2167 14° North 153 176 1,500 -780 Descending New York TRACON
02:17PM 40.6500 -74.2000 21° North 116 133 900 -600 Descending New York TRACON